LFRI

La Roche-sur-Yon Airport

La Roche-sur-Yon/Les Ajoncs, France
TAF LFRI 191100Z 1912/2012 05015KT CAVOK TEMPO 1912/1918 05015G25KT BECMG 2004/2006 02005KT TEMPO 2001/2010 BKN008
Issued Valid From Valid To
Nov-19 @ 11:00 UTC
(3 hours ago)
Nov-19 @ 12:00 UTC
(2 hours ago)
Nov-20 @ 12:00 UTC
(in 22 hours)
Nov-19 @ 12:00 to Nov-20 @ 04:00
TAF LFRI 191100Z 1912/2012 05015KT CAVOK
Wind Visibility Clouds Conditions
50° at 15 knots 10,000+ meters
  • No significant clouds
Temporary Nov-19 @ 12:00 to Nov-19 @ 18:00
TEMPO 1912/1918 05015G25KT
Wind
50° at 15 knots
 Gusting to 25 knots
Temporary Nov-20 @ 01:00 to Nov-20 @ 10:00
TEMPO 2001/2010 BKN008
Clouds
  • Broken at 800' AGL
Becoming Nov-20 @ 04:00 to Nov-20 @ 12:00
BECMG 2004/2006 02005KT
Wind Visibility Clouds Conditions
20° at 5 knots 10,000+ meters
  • No significant clouds
TAF LFRI 191100Z 1912/2012 05015KT CAVOK TEMPO 1912/1918 05015G25KT BECMG 2004/2006 02005KT TEMPO 2001/2010 BKN008
Issued Nov-19 @ 11:00 UTC
(3 hours ago)
Valid From Nov-19 @ 12:00 UTC
(2 hours ago)
Valid To Nov-20 @ 12:00 UTC
(in 22 hours)
Nov-19 @ 12:00 - Nov-20 @ 04:00
Wind Visibility
50° at 15 knots 10,000+ meters
Clouds
  • No significant clouds
Conditions
Temporary Nov-19 @ 12:00 - Nov-19 @ 18:00
Wind
50° at 15 knots
 Gusting to 25 knots
Temporary Nov-20 @ 01:00 - Nov-20 @ 10:00
Clouds
  • Broken at 800' AGL
Becoming Nov-20 @ 04:00 - Nov-20 @ 12:00
Wind Visibility
20° at 5 knots 10,000+ meters
Clouds
  • No significant clouds
Conditions